sensor_id;sensor_type;location;lat;lon;timestamp;pressure;altitude;pressure_sealevel;temperature;humidity
46223;BME280;31943;51.410;7.564;2023-01-30T00:01:52;100516.38;;;2.99;73.87
46223;BME280;31943;51.410;7.564;2023-01-30T00:04:19;100507.88;;;3.02;73.86
46223;BME280;31943;51.410;7.564;2023-01-30T00:06:46;100483.06;;;3.04;73.89
46223;BME280;31943;51.410;7.564;2023-01-30T00:09:12;100478.72;;;3.03;74.24
46223;BME280;31943;51.410;7.564;2023-01-30T00:11:41;100492.56;;;3.05;74.26
46223;BME280;31943;51.410;7.564;2023-01-30T00:14:08;100497.66;;;3.03;74.43
46223;BME280;31943;51.410;7.564;2023-01-30T00:16:34;100492.72;;;3.08;74.27
46223;BME280;31943;51.410;7.564;2023-01-30T00:19:01;100509.19;;;3.11;74.29
46223;BME280;31943;51.410;7.564;2023-01-30T00:21:26;100509.94;;;3.09;74.51
46223;BME280;31943;51.410;7.564;2023-01-30T00:23:53;100501.44;;;3.11;74.64
46223;BME280;31943;51.410;7.564;2023-01-30T00:26:19;100489.56;;;3.15;74.24
46223;BME280;31943;51.410;7.564;2023-01-30T00:28:46;100502.38;;;3.13;74.62
46223;BME280;31943;51.410;7.564;2023-01-30T00:31:12;100489.56;;;3.15;74.72
46223;BME280;31943;51.410;7.564;2023-01-30T00:33:38;100493.78;;;3.13;74.92
46223;BME280;31943;51.410;7.564;2023-01-30T00:36:05;100495.59;;;3.15;74.83
46223;BME280;31943;51.410;7.564;2023-01-30T00:38:31;100480.97;;;3.14;75.10
46223;BME280;31943;51.410;7.564;2023-01-30T00:40:59;100500.03;;;3.18;75.02
46223;BME280;31943;51.410;7.564;2023-01-30T00:43:26;100478.56;;;3.19;75.06
46223;BME280;31943;51.410;7.564;2023-01-30T00:45:56;100471.09;;;3.25;75.06
46223;BME280;31943;51.410;7.564;2023-01-30T00:48:24;100457.56;;;3.31;74.78
46223;BME280;31943;51.410;7.564;2023-01-30T00:50:51;100458.50;;;3.31;74.92
46223;BME280;31943;51.410;7.564;2023-01-30T00:53:17;100442.19;;;3.32;74.87
46223;BME280;31943;51.410;7.564;2023-01-30T00:55:42;100444.66;;;3.29;74.96
46223;BME280;31943;51.410;7.564;2023-01-30T00:58:08;100447.34;;;3.32;75.23
46223;BME280;31943;51.410;7.564;2023-01-30T01:00:34;100437.88;;;3.33;75.30
46223;BME280;31943;51.410;7.564;2023-01-30T01:03:02;100432.13;;;3.39;75.33
46223;BME280;31943;51.410;7.564;2023-01-30T01:05:29;100433.06;;;3.41;75.28
46223;BME280;31943;51.410;7.564;2023-01-30T01:07:56;100439.16;;;3.43;75.20
46223;BME280;31943;51.410;7.564;2023-01-30T01:10:22;100438.34;;;3.44;75.31
46223;BME280;31943;51.410;7.564;2023-01-30T01:12:49;100428.09;;;3.45;75.62
46223;BME280;31943;51.410;7.564;2023-01-30T01:15:20;100417.03;;;3.48;75.53
46223;BME280;31943;51.410;7.564;2023-01-30T01:17:46;100425.84;;;3.53;75.50
46223;BME280;31943;51.410;7.564;2023-01-30T01:20:17;100422.38;;;3.52;75.43
46223;BME280;31943;51.410;7.564;2023-01-30T01:22:44;100420.72;;;3.54;75.50
46223;BME280;31943;51.410;7.564;2023-01-30T01:25:11;100397.56;;;3.56;75.55
46223;BME280;31943;51.410;7.564;2023-01-30T01:27:44;100376.13;;;3.57;75.72
46223;BME280;31943;51.410;7.564;2023-01-30T01:30:14;100387.41;;;3.61;75.72
46223;BME280;31943;51.410;7.564;2023-01-30T01:32:41;100384.81;;;3.59;75.65
46223;BME280;31943;51.410;7.564;2023-01-30T01:35:07;100369.38;;;3.61;75.91
46223;BME280;31943;51.410;7.564;2023-01-30T01:37:34;100369.38;;;3.61;75.95
46223;BME280;31943;51.410;7.564;2023-01-30T01:40:00;100371.28;;;3.65;75.99
46223;BME280;31943;51.410;7.564;2023-01-30T01:42:29;100377.38;;;3.67;76.25
46223;BME280;31943;51.410;7.564;2023-01-30T01:45:00;100378.47;;;3.73;75.95
46223;BME280;31943;51.410;7.564;2023-01-30T01:47:27;100358.84;;;3.77;76.07
46223;BME280;31943;51.410;7.564;2023-01-30T01:49:54;100375.19;;;3.78;76.18
46223;BME280;31943;51.410;7.564;2023-01-30T01:52:20;100377.84;;;3.79;76.40
46223;BME280;31943;51.410;7.564;2023-01-30T01:54:51;100360.66;;;3.80;76.48
46223;BME280;31943;51.410;7.564;2023-01-30T01:57:22;100354.63;;;3.79;76.73
46223;BME280;31943;51.410;7.564;2023-01-30T01:59:52;100364.94;;;3.79;76.90
46223;BME280;31943;51.410;7.564;2023-01-30T02:02:19;100363.13;;;3.76;77.36
46223;BME280;31943;51.410;7.564;2023-01-30T02:04:51;100361.50;;;3.79;77.15
46223;BME280;31943;51.410;7.564;2023-01-30T02:07:20;100352.03;;;3.79;77.29
46223;BME280;31943;51.410;7.564;2023-01-30T02:09:55;100340.13;;;3.83;77.38
46223;BME280;31943;51.410;7.564;2023-01-30T02:12:23;100345.16;;;3.80;77.59
46223;BME280;31943;51.410;7.564;2023-01-30T02:14:51;100326.47;;;3.85;77.35
46223;BME280;31943;51.410;7.564;2023-01-30T02:17:18;100326.53;;;3.87;77.52
46223;BME280;31943;51.410;7.564;2023-01-30T02:20:00;100336.84;;;3.87;77.45
46223;BME280;31943;51.410;7.564;2023-01-30T02:23:00;100331.69;;;3.87;77.67
46223;BME280;31943;51.410;7.564;2023-01-30T02:26:04;100320.50;;;3.86;77.70
46223;BME280;31943;51.410;7.564;2023-01-30T02:29:02;100318.88;;;3.90;77.74
46223;BME280;31943;51.410;7.564;2023-01-30T02:31:41;100312.13;;;3.93;77.79
46223;BME280;31943;51.410;7.564;2023-01-30T02:34:20;100290.53;;;3.91;77.94
46223;BME280;31943;51.410;7.564;2023-01-30T02:37:00;100287.97;;;3.91;77.86
46223;BME280;31943;51.410;7.564;2023-01-30T02:39:47;100282.81;;;3.91;77.98
46223;BME280;31943;51.410;7.564;2023-01-30T02:42:21;100287.09;;;3.91;78.09
46223;BME280;31943;51.410;7.564;2023-01-30T02:45:04;100278.50;;;3.92;78.08
46223;BME280;31943;51.410;7.564;2023-01-30T02:48:20;100263.91;;;3.92;78.13
46223;BME280;31943;51.410;7.564;2023-01-30T02:50:57;100268.44;;;3.98;78.02
46223;BME280;31943;51.410;7.564;2023-01-30T02:53:24;100281.28;;;3.96;78.18
46223;BME280;31943;51.410;7.564;2023-01-30T02:55:52;100272.81;;;4.01;78.14
46223;BME280;31943;51.410;7.564;2023-01-30T02:58:19;100280.56;;;4.01;78.22
46223;BME280;31943;51.410;7.564;2023-01-30T03:04:14;100274.84;;;4.09;78.16
46223;BME280;31943;51.410;7.564;2023-01-30T03:06:56;100258.41;;;4.07;78.36
46223;BME280;31943;51.410;7.564;2023-01-30T03:09:28;100262.72;;;4.07;78.07
46223;BME280;31943;51.410;7.564;2023-01-30T03:12:00;100267.81;;;4.05;78.16
46223;BME280;31943;51.410;7.564;2023-01-30T03:14:31;100258.47;;;4.09;78.29
46223;BME280;31943;51.410;7.564;2023-01-30T03:17:03;100271.34;;;4.07;78.42
46223;BME280;31943;51.410;7.564;2023-01-30T03:19:32;100266.28;;;4.10;78.23
46223;BME280;31943;51.410;7.564;2023-01-30T03:21:57;100259.47;;;4.12;78.34
46223;BME280;31943;51.410;7.564;2023-01-30T03:24:26;100249.97;;;4.11;78.55
46223;BME280;31943;51.410;7.564;2023-01-30T03:26:55;100238.81;;;4.12;78.43
46223;BME280;31943;51.410;7.564;2023-01-30T03:29:23;100252.53;;;4.11;78.80
46223;BME280;31943;51.410;7.564;2023-01-30T03:31:48;100228.44;;;4.11;78.78
46223;BME280;31943;51.410;7.564;2023-01-30T03:34:21;100232.06;;;4.16;78.75
46223;BME280;31943;51.410;7.564;2023-01-30T03:36:58;100218.38;;;4.19;78.51
46223;BME280;31943;51.410;7.564;2023-01-30T03:39:24;100241.69;;;4.20;78.53
46223;BME280;31943;51.410;7.564;2023-01-30T03:42:02;100221.88;;;4.21;78.45
46223;BME280;31943;51.410;7.564;2023-01-30T03:44:28;100220.22;;;4.23;78.58
46223;BME280;31943;51.410;7.564;2023-01-30T03:46:53;100217.59;;;4.21;78.53
46223;BME280;31943;51.410;7.564;2023-01-30T03:49:19;100212.47;;;4.23;78.67
46223;BME280;31943;51.410;7.564;2023-01-30T03:51:45;100215.25;;;4.27;78.56
46223;BME280;31943;51.410;7.564;2023-01-30T03:54:13;100202.28;;;4.26;78.41
46223;BME280;31943;51.410;7.564;2023-01-30T03:56:41;100191.00;;;4.24;78.66
46223;BME280;31943;51.410;7.564;2023-01-30T03:59:08;100185.13;;;4.28;78.60
46223;BME280;31943;51.410;7.564;2023-01-30T04:01:34;100174.78;;;4.28;78.64
46223;BME280;31943;51.410;7.564;2023-01-30T04:04:00;100181.69;;;4.29;78.49
46223;BME280;31943;51.410;7.564;2023-01-30T04:06:28;100180.88;;;4.30;78.61
46223;BME280;31943;51.410;7.564;2023-01-30T04:08:55;100182.59;;;4.29;78.65
46223;BME280;31943;51.410;7.564;2023-01-30T04:11:24;100167.97;;;4.30;78.63
46223;BME280;31943;51.410;7.564;2023-01-30T04:13:49;100152.59;;;4.34;78.57
46223;BME280;31943;51.410;7.564;2023-01-30T04:16:18;100168.22;;;4.38;78.50
46223;BME280;31943;51.410;7.564;2023-01-30T04:18:45;100172.72;;;4.43;78.23
46223;BME280;31943;51.410;7.564;2023-01-30T04:21:11;100158.75;;;4.38;78.24
46223;BME280;31943;51.410;7.564;2023-01-30T04:23:43;100155.38;;;4.39;78.57
46223;BME280;31943;51.410;7.564;2023-01-30T04:26:10;100161.47;;;4.41;78.44
46223;BME280;31943;51.410;7.564;2023-01-30T04:28:47;100151.88;;;4.39;78.72
46223;BME280;31943;51.410;7.564;2023-01-30T04:31:13;100157.09;;;4.40;78.62
46223;BME280;31943;51.410;7.564;2023-01-30T04:33:42;100158.09;;;4.44;78.74
46223;BME280;31943;51.410;7.564;2023-01-30T04:36:09;100150.19;;;4.39;78.82
46223;BME280;31943;51.410;7.564;2023-01-30T04:38:41;100159.75;;;4.42;78.92
46223;BME280;31943;51.410;7.564;2023-01-30T04:41:09;100159.81;;;4.43;79.05
46223;BME280;31943;51.410;7.564;2023-01-30T04:43:35;100158.16;;;4.45;79.15
46223;BME280;31943;51.410;7.564;2023-01-30T04:46:20;100150.41;;;4.45;79.39
46223;BME280;31943;51.410;7.564;2023-01-30T04:48:46;100145.13;;;4.42;79.45
46223;BME280;31943;51.410;7.564;2023-01-30T04:51:16;100146.91;;;4.45;79.34
46223;BME280;31943;51.410;7.564;2023-01-30T04:53:44;100155.56;;;4.45;79.30
46223;BME280;31943;51.410;7.564;2023-01-30T04:56:13;100145.25;;;4.47;79.50
46223;BME280;31943;51.410;7.564;2023-01-30T04:58:43;100146.03;;;4.44;79.59
46223;BME280;31943;51.410;7.564;2023-01-30T05:01:13;100136.69;;;4.48;79.68
46223;BME280;31943;51.410;7.564;2023-01-30T05:03:44;100134.09;;;4.48;79.68
46223;BME280;31943;51.410;7.564;2023-01-30T05:06:16;100140.16;;;4.48;79.86
46223;BME280;31943;51.410;7.564;2023-01-30T05:08:47;100135.75;;;4.46;79.78
46223;BME280;31943;51.410;7.564;2023-01-30T05:11:12;100124.75;;;4.51;79.75
46223;BME280;31943;51.410;7.564;2023-01-30T05:13:39;100119.66;;;4.53;79.75
46223;BME280;31943;51.410;7.564;2023-01-30T05:16:06;100135.34;;;4.59;79.63
46223;BME280;31943;51.410;7.564;2023-01-30T05:18:32;100138.00;;;4.62;79.80
46223;BME280;31943;51.410;7.564;2023-01-30T05:21:06;100132.81;;;4.61;79.51
46223;BME280;31943;51.410;7.564;2023-01-30T05:23:33;100144.78;;;4.59;79.95
46223;BME280;31943;51.410;7.564;2023-01-30T05:26:00;100125.97;;;4.63;79.57
46223;BME280;31943;51.410;7.564;2023-01-30T05:28:30;100125.09;;;4.62;79.81
46223;BME280;31943;51.410;7.564;2023-01-30T05:31:01;100107.97;;;4.66;79.56
46223;BME280;31943;51.410;7.564;2023-01-30T05:33:26;100114.06;;;4.68;79.64
46223;BME280;31943;51.410;7.564;2023-01-30T05:35:57;100123.63;;;4.70;79.94
46223;BME280;31943;51.410;7.564;2023-01-30T05:38:27;100127.97;;;4.71;79.69
46223;BME280;31943;51.410;7.564;2023-01-30T05:40:59;100110.22;;;4.82;79.55
46223;BME280;31943;51.410;7.564;2023-01-30T05:43:28;100111.16;;;4.84;79.53
46223;BME280;31943;51.410;7.564;2023-01-30T05:46:02;100106.06;;;4.87;79.35
46223;BME280;31943;51.410;7.564;2023-01-30T05:48:28;100098.13;;;4.81;79.64
46223;BME280;31943;51.410;7.564;2023-01-30T05:50:56;100106.91;;;4.86;79.49
46223;BME280;31943;51.410;7.564;2023-01-30T05:53:25;100098.22;;;4.84;79.63
46223;BME280;31943;51.410;7.564;2023-01-30T05:55:55;100112.84;;;4.84;79.84
46223;BME280;31943;51.410;7.564;2023-01-30T05:58:21;100111.97;;;4.83;79.62
46223;BME280;31943;51.410;7.564;2023-01-30T06:00:47;100119.84;;;4.88;79.70
46223;BME280;31943;51.410;7.564;2023-01-30T06:03:12;100124.34;;;4.93;79.99
46223;BME280;31943;51.410;7.564;2023-01-30T06:05:40;100127.78;;;4.92;80.11
46223;BME280;31943;51.410;7.564;2023-01-30T06:08:06;100121.69;;;4.92;79.95
46223;BME280;31943;51.410;7.564;2023-01-30T06:10:32;100117.31;;;4.89;80.15
46223;BME280;31943;51.410;7.564;2023-01-30T06:12:59;100101.91;;;4.92;80.16
46223;BME280;31943;51.410;7.564;2023-01-30T06:15:26;100102.88;;;4.96;80.14
46223;BME280;31943;51.410;7.564;2023-01-30T06:17:53;100102.03;;;4.97;80.26
46223;BME280;31943;51.410;7.564;2023-01-30T06:20:19;100117.44;;;4.92;80.29
46223;BME280;31943;51.410;7.564;2023-01-30T06:22:47;100129.56;;;4.95;80.42
46223;BME280;31943;51.410;7.564;2023-01-30T06:25:14;100128.69;;;4.94;80.50
46223;BME280;31943;51.410;7.564;2023-01-30T06:27:48;100126.19;;;4.98;80.70
46223;BME280;31943;51.410;7.564;2023-01-30T06:30:17;100134.88;;;5.00;80.90
46223;BME280;31943;51.410;7.564;2023-01-30T06:32:43;100129.81;;;5.03;80.73
46223;BME280;31943;51.410;7.564;2023-01-30T06:35:30;100138.47;;;5.05;80.91
46223;BME280;31943;51.410;7.564;2023-01-30T06:37:56;100132.44;;;5.04;80.95
46223;BME280;31943;51.410;7.564;2023-01-30T06:40:22;100135.09;;;5.07;81.02
46223;BME280;31943;51.410;7.564;2023-01-30T06:42:48;100133.50;;;5.11;80.97
46223;BME280;31943;51.410;7.564;2023-01-30T06:45:17;100129.34;;;5.16;81.01
46223;BME280;31943;51.410;7.564;2023-01-30T06:47:44;100138.09;;;5.21;81.02
46223;BME280;31943;51.410;7.564;2023-01-30T06:50:10;100150.31;;;5.25;81.22
46223;BME280;31943;51.410;7.564;2023-01-30T06:52:41;100160.84;;;5.31;81.04
46223;BME280;31943;51.410;7.564;2023-01-30T06:55:07;100157.47;;;5.34;80.92
46223;BME280;31943;51.410;7.564;2023-01-30T06:57:33;100167.88;;;5.35;80.88
46223;BME280;31943;51.410;7.564;2023-01-30T06:59:59;100159.38;;;5.40;80.92
46223;BME280;31943;51.410;7.564;2023-01-30T07:02:29;100156.91;;;5.44;80.79
46223;BME280;31943;51.410;7.564;2023-01-30T07:04:55;100157.91;;;5.49;80.56
46223;BME280;31943;51.410;7.564;2023-01-30T07:07:20;100145.97;;;5.54;80.68
46223;BME280;31943;51.410;7.564;2023-01-30T07:09:46;100157.25;;;5.57;80.39
46223;BME280;31943;51.410;7.564;2023-01-30T07:12:12;100153.84;;;5.58;80.37
46223;BME280;31943;51.410;7.564;2023-01-30T07:14:38;100150.50;;;5.62;80.22
46223;BME280;31943;51.410;7.564;2023-01-30T07:17:03;100161.78;;;5.64;80.21
46223;BME280;31943;51.410;7.564;2023-01-30T07:19:36;100143.75;;;5.67;80.21
46223;BME280;31943;51.410;7.564;2023-01-30T07:22:02;100142.84;;;5.66;80.05
46223;BME280;31943;51.410;7.564;2023-01-30T07:24:28;100144.66;;;5.69;79.80
46223;BME280;31943;51.410;7.564;2023-01-30T07:26:56;100152.50;;;5.70;79.96
46223;BME280;31943;51.410;7.564;2023-01-30T07:29:23;100144.72;;;5.72;79.74
46223;BME280;31943;51.410;7.564;2023-01-30T07:31:50;100138.78;;;5.74;79.53
46223;BME280;31943;51.410;7.564;2023-01-30T07:34:16;100144.91;;;5.78;79.28
46223;BME280;31943;51.410;7.564;2023-01-30T07:36:44;100146.66;;;5.79;79.41
46223;BME280;31943;51.410;7.564;2023-01-30T07:39:09;100157.94;;;5.81;79.07
46223;BME280;31943;51.410;7.564;2023-01-30T07:41:35;100157.19;;;5.85;79.03
46223;BME280;31943;51.410;7.564;2023-01-30T07:44:01;100166.69;;;5.85;78.86
46223;BME280;31943;51.410;7.564;2023-01-30T07:46:27;100167.78;;;5.93;78.66
46223;BME280;31943;51.410;7.564;2023-01-30T07:48:53;100178.13;;;5.93;78.43
46223;BME280;31943;51.410;7.564;2023-01-30T07:51:19;100169.63;;;5.97;78.19
46223;BME280;31943;51.410;7.564;2023-01-30T07:53:50;100176.59;;;6.00;77.89
46223;BME280;31943;51.410;7.564;2023-01-30T07:56:16;100180.91;;;5.99;78.02
46223;BME280;31943;51.410;7.564;2023-01-30T07:58:42;100171.63;;;6.06;77.73
46223;BME280;31943;51.410;7.564;2023-01-30T08:01:08;100169.63;;;5.97;77.31
46223;BME280;31943;51.410;7.564;2023-01-30T08:03:34;100167.91;;;5.98;77.37
46223;BME280;31943;51.410;7.564;2023-01-30T08:06:02;100186.03;;;5.96;77.19
46223;BME280;31943;51.410;7.564;2023-01-30T08:08:28;100191.38;;;6.02;77.06
46223;BME280;31943;51.410;7.564;2023-01-30T08:10:55;100192.34;;;6.07;75.77
46223;BME280;31943;51.410;7.564;2023-01-30T08:13:21;100177.78;;;6.11;76.08
46223;BME280;31943;51.410;7.564;2023-01-30T08:15:47;100188.13;;;6.11;75.98
46223;BME280;31943;51.410;7.564;2023-01-30T08:18:13;100182.13;;;6.12;76.10
46223;BME280;31943;51.410;7.564;2023-01-30T08:20:38;100194.38;;;6.18;74.36
46223;BME280;31943;51.410;7.564;2023-01-30T08:23:04;100189.25;;;6.21;73.83
46223;BME280;31943;51.410;7.564;2023-01-30T08:25:30;100189.97;;;6.15;73.49
46223;BME280;31943;51.410;7.564;2023-01-30T08:28:01;100199.56;;;6.18;73.81
46223;BME280;31943;51.410;7.564;2023-01-30T08:30:27;100209.94;;;6.18;73.36
46223;BME280;31943;51.410;7.564;2023-01-30T08:32:53;100204.00;;;6.22;73.19
46223;BME280;31943;51.410;7.564;2023-01-30T08:35:20;100205.72;;;6.23;73.08
46223;BME280;31943;51.410;7.564;2023-01-30T08:37:45;100203.06;;;6.20;72.77
46223;BME280;31943;51.410;7.564;2023-01-30T08:40:12;100214.31;;;6.20;72.64
46223;BME280;31943;51.410;7.564;2023-01-30T08:42:38;100193.56;;;6.20;72.46
46223;BME280;31943;51.410;7.564;2023-01-30T08:45:15;100200.44;;;6.18;72.50
46223;BME280;31943;51.410;7.564;2023-01-30T08:47:41;100204.81;;;6.21;72.47
46223;BME280;31943;51.410;7.564;2023-01-30T08:50:09;100197.03;;;6.21;72.07
46223;BME280;31943;51.410;7.564;2023-01-30T08:52:35;100196.16;;;6.20;72.11
46223;BME280;31943;51.410;7.564;2023-01-30T08:55:01;100206.53;;;6.20;72.07
46223;BME280;31943;51.410;7.564;2023-01-30T08:57:26;100207.41;;;6.21;71.96
46223;BME280;31943;51.410;7.564;2023-01-30T08:59:52;100204.00;;;6.23;72.09
46223;BME280;31943;51.410;7.564;2023-01-30T09:02:19;100208.63;;;6.33;70.76
46223;BME280;31943;51.410;7.564;2023-01-30T09:04:44;100204.31;;;6.34;70.85
46223;BME280;31943;51.410;7.564;2023-01-30T09:07:10;100205.03;;;6.28;70.94
46223;BME280;31943;51.410;7.564;2023-01-30T09:09:36;100212.78;;;6.28;71.65
46223;BME280;31943;51.410;7.564;2023-01-30T09:12:02;100197.44;;;6.36;71.21
46223;BME280;31943;51.410;7.564;2023-01-30T09:14:32;100217.28;;;6.34;71.29
46223;BME280;31943;51.410;7.564;2023-01-30T09:16:57;100215.47;;;6.31;71.24
46223;BME280;31943;51.410;7.564;2023-01-30T09:19:26;100229.41;;;6.35;71.17
46223;BME280;31943;51.410;7.564;2023-01-30T09:21:54;100213.59;;;6.26;70.83
46223;BME280;31943;51.410;7.564;2023-01-30T09:24:22;100211.88;;;6.26;70.46
46223;BME280;31943;51.410;7.564;2023-01-30T09:26:48;100228.50;;;6.34;69.43
46223;BME280;31943;51.410;7.564;2023-01-30T09:29:14;100223.16;;;6.28;68.72
46223;BME280;31943;51.410;7.564;2023-01-30T09:31:40;100213.03;;;6.38;68.34
46223;BME280;31943;51.410;7.564;2023-01-30T09:34:06;100216.34;;;6.32;68.70
46223;BME280;31943;51.410;7.564;2023-01-30T09:36:33;100213.91;;;6.38;67.31
46223;BME280;31943;51.410;7.564;2023-01-30T09:38:59;100242.53;;;6.41;66.57
46223;BME280;31943;51.410;7.564;2023-01-30T09:41:47;100243.44;;;6.43;66.18
46223;BME280;31943;51.410;7.564;2023-01-30T09:44:45;100244.09;;;6.36;66.55
46223;BME280;31943;51.410;7.564;2023-01-30T09:47:15;100246.91;;;6.44;66.84
46223;BME280;31943;51.410;7.564;2023-01-30T09:49:48;100253.81;;;6.45;66.39
46223;BME280;31943;51.410;7.564;2023-01-30T09:52:26;100245.31;;;6.49;65.33
46223;BME280;31943;51.410;7.564;2023-01-30T09:55:00;100251.44;;;6.52;65.33
46223;BME280;31943;51.410;7.564;2023-01-30T09:57:27;100254.94;;;6.53;65.34
46223;BME280;31943;51.410;7.564;2023-01-30T10:00:01;100263.69;;;6.57;64.96
46223;BME280;31943;51.410;7.564;2023-01-30T10:02:40;100272.97;;;6.50;65.43
46223;BME280;31943;51.410;7.564;2023-01-30T10:05:09;100271.00;;;6.40;65.47
46223;BME280;31943;51.410;7.564;2023-01-30T10:07:47;100277.03;;;6.40;65.33
46223;BME280;31943;51.410;7.564;2023-01-30T10:10:19;100285.69;;;6.41;65.09
46223;BME280;31943;51.410;7.564;2023-01-30T10:12:56;100276.06;;;6.35;65.43
46223;BME280;31943;51.410;7.564;2023-01-30T10:15:44;100296.63;;;6.30;65.48
46223;BME280;31943;51.410;7.564;2023-01-30T10:18:31;100269.84;;;6.30;64.22
46223;BME280;31943;51.410;7.564;2023-01-30T10:21:10;100275.75;;;6.24;65.01
46223;BME280;31943;51.410;7.564;2023-01-30T10:23:50;100273.91;;;6.20;65.74
46223;BME280;31943;51.410;7.564;2023-01-30T10:26:22;100270.66;;;6.27;65.65
46223;BME280;31943;51.410;7.564;2023-01-30T10:28:54;100276.13;;;6.38;65.13
46223;BME280;31943;51.410;7.564;2023-01-30T10:31:21;100278.81;;;6.43;64.10
46223;BME280;31943;51.410;7.564;2023-01-30T10:33:55;100301.44;;;6.47;63.89
46223;BME280;31943;51.410;7.564;2023-01-30T10:36:28;100277.28;;;6.49;63.53
46223;BME280;31943;51.410;7.564;2023-01-30T10:38:58;100256.47;;;6.46;64.52
46223;BME280;31943;51.410;7.564;2023-01-30T10:41:26;100259.19;;;6.51;64.35
46223;BME280;31943;51.410;7.564;2023-01-30T10:43:58;100267.72;;;6.47;64.12
46223;BME280;31943;51.410;7.564;2023-01-30T10:46:34;100271.31;;;6.52;63.90
46223;BME280;31943;51.410;7.564;2023-01-30T10:49:05;100255.03;;;6.58;63.52
46223;BME280;31943;51.410;7.564;2023-01-30T10:51:38;100251.78;;;6.65;63.61
46223;BME280;31943;51.410;7.564;2023-01-30T10:54:13;100258.59;;;6.61;63.82
46223;BME280;31943;51.410;7.564;2023-01-30T10:56:47;100267.13;;;6.57;64.03
46223;BME280;31943;51.410;7.564;2023-01-30T10:59:22;100268.91;;;6.60;63.36
46223;BME280;31943;51.410;7.564;2023-01-30T11:01:57;100262.63;;;6.50;63.47
46223;BME280;31943;51.410;7.564;2023-01-30T11:04:29;100266.84;;;6.46;62.93
46223;BME280;31943;51.410;7.564;2023-01-30T11:06:56;100266.06;;;6.50;62.59
46223;BME280;31943;51.410;7.564;2023-01-30T11:09:36;100269.31;;;6.42;63.08
46223;BME280;31943;51.410;7.564;2023-01-30T11:12:03;100260.53;;;6.37;62.88
46223;BME280;31943;51.410;7.564;2023-01-30T11:14:48;100264.00;;;6.37;62.97
46223;BME280;31943;51.410;7.564;2023-01-30T11:17:15;100269.31;;;6.42;62.60
46223;BME280;31943;51.410;7.564;2023-01-30T11:19:44;100262.34;;;6.41;62.48
46223;BME280;31943;51.410;7.564;2023-01-30T11:22:13;100263.31;;;6.44;62.40
46223;BME280;31943;51.410;7.564;2023-01-30T11:24:42;100270.50;;;6.54;61.77
46223;BME280;31943;51.410;7.564;2023-01-30T11:27:10;100260.06;;;6.51;62.15
46223;BME280;31943;51.410;7.564;2023-01-30T11:29:38;100277.41;;;6.54;61.83
46223;BME280;31943;51.410;7.564;2023-01-30T11:32:21;100278.28;;;6.54;61.75
46223;BME280;31943;51.410;7.564;2023-01-30T11:35:01;100270.50;;;6.54;62.11
46223;BME280;31943;51.410;7.564;2023-01-30T11:37:34;100288.38;;;6.44;62.33
46223;BME280;31943;51.410;7.564;2023-01-30T11:40:06;100268.59;;;6.47;62.32
46223;BME280;31943;51.410;7.564;2023-01-30T11:42:43;100280.00;;;6.54;61.83
46223;BME280;31943;51.410;7.564;2023-01-30T11:45:10;100266.13;;;6.52;61.58
46223;BME280;31943;51.410;7.564;2023-01-30T11:47:44;100279.94;;;6.52;62.37
46223;BME280;31943;51.410;7.564;2023-01-30T11:50:15;100272.53;;;6.65;62.30
46223;BME280;31943;51.410;7.564;2023-01-30T11:52:41;100259.63;;;6.68;62.00
46223;BME280;31943;51.410;7.564;2023-01-30T11:55:20;100283.06;;;6.71;62.25
46223;BME280;31943;51.410;7.564;2023-01-30T11:57:48;100266.72;;;6.75;61.57
46223;BME280;31943;51.410;7.564;2023-01-30T12:00:18;100289.81;;;6.66;62.43
46223;BME280;31943;51.410;7.564;2023-01-30T12:02:47;100286.25;;;6.62;63.32
46223;BME280;31943;51.410;7.564;2023-01-30T12:05:23;100317.25;;;6.58;64.74
46223;BME280;31943;51.410;7.564;2023-01-30T12:07:50;100298.75;;;6.44;66.12
46223;BME280;31943;51.410;7.564;2023-01-30T12:10:27;100283.72;;;6.32;66.92
46223;BME280;31943;51.410;7.564;2023-01-30T12:12:55;100290.59;;;6.30;67.13
46223;BME280;31943;51.410;7.564;2023-01-30T12:15:26;100286.00;;;6.21;67.07
46223;BME280;31943;51.410;7.564;2023-01-30T12:18:00;100292.91;;;6.21;66.96
46223;BME280;31943;51.410;7.564;2023-01-30T12:20:36;100299.75;;;6.19;67.27
46223;BME280;31943;51.410;7.564;2023-01-30T12:23:14;100302.53;;;6.25;67.62
46223;BME280;31943;51.410;7.564;2023-01-30T12:25:47;100298.31;;;6.28;67.54
46223;BME280;31943;51.410;7.564;2023-01-30T12:28:23;100285.44;;;6.31;66.73
46223;BME280;31943;51.410;7.564;2023-01-30T12:30:55;100286.31;;;6.32;67.11
46223;BME280;31943;51.410;7.564;2023-01-30T12:33:26;100290.59;;;6.30;67.46
46223;BME280;31943;51.410;7.564;2023-01-30T12:36:05;100288.22;;;6.38;65.52
46223;BME280;31943;51.410;7.564;2023-01-30T12:38:49;100291.72;;;6.40;65.84
46223;BME280;31943;51.410;7.564;2023-01-30T12:44:38;100293.84;;;6.54;65.62
46223;BME280;31943;51.410;7.564;2023-01-30T12:47:19;100285.34;;;6.60;65.78
46223;BME280;31943;51.410;7.564;2023-01-30T12:50:11;100280.22;;;6.62;65.89
46223;BME280;31943;51.410;7.564;2023-01-30T12:53:05;100295.91;;;6.68;64.31
46223;BME280;31943;51.410;7.564;2023-01-30T12:55:41;100300.09;;;6.61;64.75
46223;BME280;31943;51.410;7.564;2023-01-30T12:58:15;100302.63;;;6.60;64.49
46223;BME280;31943;51.410;7.564;2023-01-30T13:01:05;100302.13;;;6.73;63.53
46223;BME280;31943;51.410;7.564;2023-01-30T13:03:42;100295.50;;;6.84;62.12
46223;BME280;31943;51.410;7.564;2023-01-30T13:06:30;100298.13;;;6.86;61.99
46223;BME280;31943;51.410;7.564;2023-01-30T13:09:09;100289.47;;;6.85;62.74
46223;BME280;31943;51.410;7.564;2023-01-30T13:11:44;100303.28;;;6.84;62.11
46223;BME280;31943;51.410;7.564;2023-01-30T13:14:19;100304.19;;;6.86;61.68
46223;BME280;31943;51.410;7.564;2023-01-30T13:16:58;100301.63;;;6.86;61.36
46223;BME280;31943;51.410;7.564;2023-01-30T13:19:31;100293.84;;;6.86;60.91
46223;BME280;31943;51.410;7.564;2023-01-30T13:22:06;100300.84;;;6.90;60.52
46223;BME280;31943;51.410;7.564;2023-01-30T13:24:46;100301.63;;;6.88;60.00